createdAt,value
2022-11-04T00:00:15.403Z,51.98
2022-11-04T00:03:19.791Z,51.97
2022-11-04T00:06:24.021Z,52.22
2022-11-04T00:09:31.307Z,52.39
2022-11-04T00:12:34.537Z,53.04
2022-11-04T00:15:56.147Z,53.37
2022-11-04T00:19:01.869Z,52.86
2022-11-04T00:22:23.197Z,53.27
2022-11-04T00:25:45.847Z,53.30
2022-11-04T00:28:53.258Z,53.48
2022-11-04T00:32:14.557Z,52.52
2022-11-04T00:35:19.045Z,52.33
2022-11-04T00:38:23.558Z,52.92
2022-11-04T00:41:30.545Z,52.65
2022-11-04T00:44:34.868Z,52.98
2022-11-04T00:47:38.936Z,53.74
2022-11-04T00:50:44.267Z,52.15
2022-11-04T00:53:48.301Z,50.91
2022-11-04T00:56:54.457Z,50.45
2022-11-04T00:59:58.668Z,50.36
2022-11-04T01:03:02.789Z,50.12
2022-11-04T01:06:07.660Z,50.02
2022-11-04T01:09:14.656Z,50.29
2022-11-04T01:12:20.187Z,50.60
2022-11-04T01:15:24.419Z,50.79
2022-11-04T01:18:28.676Z,50.90
2022-11-04T01:21:32.802Z,50.45
2022-11-04T01:24:36.877Z,51.36
2022-11-04T01:27:42.427Z,50.72
2022-11-04T01:30:46.536Z,51.29
2022-11-04T01:33:51.565Z,51.55
2022-11-04T01:36:55.617Z,53.15
2022-11-04T01:39:59.759Z,51.56
2022-11-04T01:43:05.915Z,51.21
2022-11-04T01:46:14.381Z,50.76
2022-11-04T01:49:27.460Z,50.61
2022-11-04T01:52:35.887Z,50.98
2022-11-04T01:55:46.798Z,50.54
2022-11-04T01:58:55.958Z,50.48
2022-11-04T02:02:00.406Z,50.39
2022-11-04T02:05:05.188Z,51.11
2022-11-04T02:08:11.261Z,51.10
2022-11-04T02:11:35.338Z,52.37
2022-11-04T02:14:41.237Z,53.87
2022-11-04T02:18:08.198Z,54.09
2022-11-04T02:21:42.897Z,55.17
2022-11-04T02:25:15.688Z,54.45
2022-11-04T02:28:53.387Z,52.95
2022-11-04T02:32:10.704Z,52.99
2022-11-04T02:35:23.547Z,52.42
2022-11-04T02:38:35.717Z,52.17
2022-11-04T02:41:47.408Z,52.20
2022-11-04T02:45:00.697Z,51.73
2022-11-04T02:48:12.849Z,51.63
2022-11-04T02:51:22.018Z,51.73
2022-11-04T02:54:30.157Z,51.50
2022-11-04T02:57:39.217Z,51.23
2022-11-04T03:00:45.876Z,50.82
2022-11-04T03:03:57.280Z,50.83
2022-11-04T03:07:03.382Z,51.32
2022-11-04T03:10:12.757Z,51.20
2022-11-04T03:13:20.658Z,51.28
2022-11-04T03:16:29.807Z,51.22
2022-11-04T03:19:42.317Z,51.97
2022-11-04T03:22:46.771Z,51.80
2022-11-04T03:25:54.527Z,51.39
2022-11-04T03:29:11.317Z,51.75
2022-11-04T03:32:24.127Z,51.63
2022-11-04T03:35:30.958Z,51.55
2022-11-04T03:38:35.317Z,51.08
2022-11-04T03:41:45.357Z,51.60
2022-11-04T03:44:50.844Z,51.14
2022-11-04T03:47:55.748Z,51.22
2022-11-04T03:51:01.842Z,52.95
2022-11-04T03:54:07.327Z,51.89
2022-11-04T03:57:39.098Z,51.70
2022-11-04T04:00:51.105Z,52.72
2022-11-04T04:03:59.618Z,52.19
2022-11-04T04:07:13.386Z,53.52
2022-11-04T04:10:38.537Z,54.51
2022-11-04T04:13:48.007Z,54.44
2022-11-04T04:16:56.148Z,55.96
2022-11-04T04:20:03.508Z,54.03
2022-11-04T04:23:26.685Z,54.32
2022-11-04T04:26:50.857Z,53.25
2022-11-04T04:29:55.727Z,53.36
2022-11-04T04:33:03.319Z,53.30
2022-11-04T04:36:11.668Z,52.27
2022-11-04T04:39:39.889Z,51.84
2022-11-04T04:43:07.413Z,52.00
2022-11-04T04:46:12.857Z,52.50
2022-11-04T04:49:17.064Z,52.23
2022-11-04T04:52:22.527Z,51.70
2022-11-04T04:55:28.017Z,55.06
2022-11-04T04:58:32.217Z,53.63
2022-11-04T05:01:36.507Z,52.82
2022-11-04T05:04:40.987Z,52.68
2022-11-04T05:07:45.298Z,53.08
2022-11-04T05:10:50.998Z,53.57
2022-11-04T05:13:55.256Z,53.46
2022-11-04T05:16:59.548Z,53.50
2022-11-04T05:20:03.868Z,53.88
2022-11-04T05:23:08.828Z,56.31
2022-11-04T05:26:15.056Z,56.31
2022-11-04T05:29:19.481Z,56.05
2022-11-04T05:32:23.667Z,57.13
2022-11-04T05:35:27.947Z,55.92
2022-11-04T05:38:32.172Z,58.56
2022-11-04T05:41:37.955Z,55.00
2022-11-04T05:44:42.248Z,54.00
2022-11-04T05:47:46.450Z,53.90
2022-11-04T05:50:50.557Z,54.54
2022-11-04T05:53:55.080Z,54.99
2022-11-04T05:57:00.825Z,54.57
2022-11-04T06:00:06.057Z,54.50
2022-11-04T06:03:13.585Z,54.53
2022-11-04T06:06:20.696Z,53.43
2022-11-04T06:09:39.322Z,53.57
2022-11-04T06:12:45.118Z,53.67
2022-11-04T06:15:49.387Z,54.40
2022-11-04T06:18:54.169Z,55.41
2022-11-04T06:21:58.677Z,55.16
2022-11-04T06:25:02.769Z,55.02
2022-11-04T06:28:08.833Z,54.86
2022-11-04T06:31:15.958Z,54.08
2022-11-04T06:34:20.536Z,54.12
2022-11-04T06:37:24.786Z,54.32
2022-11-04T06:40:28.897Z,55.16
2022-11-04T06:43:34.618Z,53.73
2022-11-04T06:46:40.177Z,53.11
2022-11-04T06:49:44.437Z,53.43
2022-11-04T06:52:48.756Z,53.07
2022-11-04T06:55:53.587Z,53.29
2022-11-04T06:58:59.462Z,53.34
2022-11-04T07:02:03.762Z,53.24
2022-11-04T07:05:09.247Z,53.15
2022-11-04T07:08:13.467Z,53.41
2022-11-04T07:11:18.279Z,53.57
2022-11-04T07:14:23.878Z,52.97
2022-11-04T07:17:28.098Z,52.93
2022-11-04T07:20:32.409Z,52.30
2022-11-04T07:23:37.119Z,54.46
2022-11-04T07:26:42.743Z,53.58
2022-11-04T07:29:48.357Z,54.24
2022-11-04T07:32:52.558Z,53.34
2022-11-04T07:35:58.601Z,52.91
2022-11-04T07:39:02.780Z,54.12
2022-11-04T07:42:09.757Z,53.69
2022-11-04T07:45:15.500Z,54.63
2022-11-04T07:48:19.767Z,54.67
2022-11-04T07:51:24.087Z,56.85
2022-11-04T07:54:29.147Z,54.65
2022-11-04T07:57:33.437Z,54.39
2022-11-04T08:00:39.187Z,53.55
2022-11-04T08:03:43.394Z,53.86
2022-11-04T08:06:47.583Z,53.71
2022-11-04T08:09:53.327Z,52.96
2022-11-04T08:12:57.538Z,52.12
2022-11-04T08:16:07.287Z,51.97
2022-11-04T08:19:11.768Z,52.91
2022-11-04T08:22:16.078Z,52.43
2022-11-04T08:25:20.233Z,52.17
2022-11-04T08:28:25.112Z,52.75
2022-11-04T08:31:34.091Z,51.93
2022-11-04T08:34:38.926Z,53.21
2022-11-04T08:37:43.178Z,52.87
2022-11-04T08:40:47.747Z,52.91
2022-11-04T08:43:52.068Z,53.22
2022-11-04T08:46:58.037Z,53.12
2022-11-04T08:50:02.321Z,54.28
2022-11-04T08:53:07.798Z,54.16
2022-11-04T08:56:14.278Z,55.39
2022-11-04T08:59:18.579Z,55.06
2022-11-04T09:02:24.338Z,54.58
2022-11-04T09:05:29.209Z,54.92
2022-11-04T09:08:33.568Z,54.96
2022-11-04T09:11:41.877Z,54.88
2022-11-04T09:14:46.088Z,55.34
2022-11-04T09:17:51.747Z,53.92
2022-11-04T09:20:56.089Z,55.13
2022-11-04T09:24:00.719Z,56.22
2022-11-04T09:27:06.456Z,53.93
2022-11-04T09:30:12.141Z,53.84
2022-11-04T09:33:18.268Z,53.39
2022-11-04T09:36:22.537Z,52.38
2022-11-04T09:39:29.508Z,52.79
2022-11-04T09:42:49.417Z,52.12
2022-11-04T09:45:53.979Z,49.52
2022-11-04T09:49:03.179Z,48.44
2022-11-04T09:52:15.058Z,47.85
2022-11-04T09:55:26.508Z,48.24
2022-11-04T09:58:34.929Z,47.21
2022-11-04T10:01:44.242Z,46.52
2022-11-04T10:05:00.650Z,46.08
2022-11-04T10:08:26.398Z,47.11
2022-11-04T10:11:41.088Z,46.27
2022-11-04T10:14:58.438Z,46.40
2022-11-04T10:18:19.417Z,45.14
2022-11-04T10:21:37.726Z,45.45
2022-11-04T10:24:44.847Z,44.85
2022-11-04T10:27:50.025Z,45.39
2022-11-04T10:30:54.528Z,44.58
2022-11-04T10:34:04.828Z,46.33
2022-11-04T10:37:13.597Z,45.22
2022-11-04T10:40:25.642Z,44.42
2022-11-04T10:43:35.926Z,43.56
2022-11-04T10:46:49.737Z,43.79
2022-11-04T10:50:34.115Z,45.15
2022-11-04T10:53:39.751Z,46.43
2022-11-04T10:56:47.500Z,45.54
2022-11-04T10:59:55.937Z,44.38
2022-11-04T11:03:00.277Z,44.38
2022-11-04T11:06:17.156Z,45.18
2022-11-04T11:09:29.720Z,44.94
2022-11-04T11:12:56.313Z,46.22
2022-11-04T11:16:10.147Z,46.79
2022-11-04T11:19:23.037Z,46.96
2022-11-04T11:22:37.768Z,45.31
2022-11-04T11:25:51.717Z,45.51
2022-11-04T11:29:04.780Z,43.96
2022-11-04T11:32:25.518Z,43.92
2022-11-04T11:35:34.577Z,44.23
2022-11-04T11:38:39.148Z,43.47
2022-11-04T11:41:56.719Z,42.75
2022-11-04T11:45:05.498Z,43.28
2022-11-04T11:48:32.058Z,44.17
2022-11-04T11:51:38.887Z,44.67
2022-11-04T11:54:45.378Z,44.16
2022-11-04T12:01:35.825Z,43.24
2022-11-04T12:11:59.819Z,43.41
2022-11-04T12:15:19.152Z,43.30
2022-11-04T12:18:43.320Z,42.49
2022-11-04T12:21:56.718Z,42.90
2022-11-04T12:25:11.468Z,42.47
2022-11-04T12:28:29.007Z,42.88
2022-11-04T12:31:44.465Z,43.07
2022-11-04T12:35:02.938Z,43.36
2022-11-04T12:38:32.826Z,43.35
2022-11-04T12:42:20.491Z,43.52
2022-11-04T12:45:27.498Z,43.69
2022-11-04T12:48:56.857Z,45.52
2022-11-04T12:52:11.497Z,46.13
2022-11-04T12:55:33.186Z,46.24
2022-11-04T12:59:11.808Z,46.00
2022-11-04T13:02:24.162Z,45.71
2022-11-04T13:05:43.494Z,45.33
2022-11-04T13:08:52.329Z,45.04
2022-11-04T13:11:59.897Z,44.57
2022-11-04T13:15:06.990Z,43.85
2022-11-04T13:18:17.031Z,43.86
2022-11-04T13:21:27.847Z,44.35
2022-11-04T13:24:36.300Z,45.79
2022-11-04T13:27:45.347Z,46.48
2022-11-04T13:30:57.045Z,45.75
2022-11-04T13:34:08.847Z,47.54
2022-11-04T13:37:25.110Z,47.91
2022-11-04T13:40:35.928Z,47.74
2022-11-04T13:43:50.653Z,47.89
2022-11-04T13:46:57.518Z,48.86
2022-11-04T13:50:01.697Z,48.30
2022-11-04T13:53:10.999Z,48.28
2022-11-04T13:56:33.775Z,47.40
2022-11-04T13:59:39.101Z,47.94
2022-11-04T14:02:45.073Z,48.38
2022-11-04T14:06:04.905Z,48.51
2022-11-04T14:09:48.345Z,48.93
2022-11-04T14:12:53.959Z,48.07
2022-11-04T14:16:04.028Z,48.01
2022-11-04T14:19:47.508Z,47.46
2022-11-04T14:22:54.879Z,47.38
2022-11-04T14:26:04.297Z,48.23
2022-11-04T14:29:17.515Z,47.98
2022-11-04T14:32:27.969Z,48.46
2022-11-04T14:35:33.378Z,48.74
2022-11-04T14:38:37.555Z,49.26
2022-11-04T14:41:54.797Z,49.11
2022-11-04T14:45:01.778Z,49.04
2022-11-04T14:48:16.296Z,49.16
2022-11-04T14:51:27.037Z,49.88
2022-11-04T14:54:34.858Z,49.67
2022-11-04T14:57:40.850Z,49.85
2022-11-04T15:00:57.351Z,49.39
2022-11-04T15:04:12.709Z,49.71
2022-11-04T15:07:27.376Z,49.86
2022-11-04T15:10:31.737Z,49.74
2022-11-04T15:13:37.658Z,50.37
2022-11-04T15:16:46.659Z,50.19
2022-11-04T15:19:53.417Z,50.63
2022-11-04T15:22:59.030Z,49.98
2022-11-04T15:26:05.147Z,51.03
2022-11-04T15:29:12.519Z,51.25
2022-11-04T15:32:19.818Z,51.48
2022-11-04T15:35:24.579Z,51.06
2022-11-04T15:38:30.298Z,52.11
2022-11-04T15:41:53.648Z,51.80
2022-11-04T15:44:58.278Z,52.67
2022-11-04T15:48:29.377Z,53.43
2022-11-04T15:51:39.426Z,52.91
2022-11-04T15:54:46.659Z,53.13
2022-11-04T15:57:52.119Z,53.66
2022-11-04T16:00:58.111Z,52.88
2022-11-04T16:04:07.803Z,53.16
2022-11-04T16:07:26.848Z,52.97
2022-11-04T16:10:33.789Z,52.66
2022-11-04T16:13:37.946Z,53.00
2022-11-04T16:16:49.967Z,53.14
2022-11-04T16:19:57.748Z,53.85
2022-11-04T16:23:04.280Z,53.65
2022-11-04T16:26:09.318Z,54.44
2022-11-04T16:29:19.861Z,54.98
2022-11-04T16:32:28.717Z,55.23
2022-11-04T16:35:34.747Z,55.54
2022-11-04T16:38:39.388Z,54.54
2022-11-04T16:41:44.210Z,54.10
2022-11-04T16:44:50.958Z,54.78
2022-11-04T16:47:56.289Z,55.78
2022-11-04T16:54:06.438Z,55.69
2022-11-04T16:57:14.921Z,55.49
2022-11-04T17:00:21.528Z,55.21
2022-11-04T17:03:26.089Z,55.63
2022-11-04T17:06:31.926Z,55.42
2022-11-04T17:09:36.207Z,55.63
2022-11-04T17:12:40.407Z,55.95
2022-11-04T17:15:44.979Z,55.68
2022-11-04T17:18:49.167Z,56.00
2022-11-04T17:21:54.957Z,55.97
2022-11-04T17:24:59.197Z,55.88
2022-11-04T17:28:03.578Z,55.46
2022-11-04T17:31:08.277Z,55.86
2022-11-04T17:34:15.785Z,56.28
2022-11-04T17:37:21.538Z,56.10
2022-11-04T17:40:26.019Z,56.40
2022-11-04T17:43:47.207Z,55.68
2022-11-04T17:46:51.697Z,56.75
2022-11-04T17:49:55.937Z,57.17
2022-11-04T17:53:01.882Z,57.82
2022-11-04T17:56:15.527Z,58.43
2022-11-04T17:59:19.786Z,58.18
2022-11-04T18:02:24.219Z,58.37
2022-11-04T18:05:28.480Z,58.32
2022-11-04T18:08:34.552Z,58.01
2022-11-04T18:11:56.437Z,57.20
2022-11-04T18:15:00.671Z,57.98
2022-11-04T18:18:05.081Z,58.10
2022-11-04T18:21:11.221Z,58.76
2022-11-04T18:24:17.382Z,58.17
2022-11-04T18:27:21.890Z,58.31
2022-11-04T18:30:26.461Z,58.35
2022-11-04T18:33:30.656Z,58.31
2022-11-04T18:36:36.309Z,57.85
2022-11-04T18:39:42.903Z,57.28
2022-11-04T18:42:47.322Z,57.30
2022-11-04T18:45:55.292Z,57.52
2022-11-04T18:48:59.731Z,57.64
2022-11-04T18:52:03.910Z,57.12
2022-11-04T18:55:11.151Z,57.50
2022-11-04T18:58:16.751Z,57.33
2022-11-04T19:01:24.585Z,56.86
2022-11-04T19:04:29.292Z,56.92
2022-11-04T19:07:33.691Z,57.71
2022-11-04T19:10:59.755Z,56.36
2022-11-04T19:14:09.715Z,56.20
2022-11-04T19:17:14.092Z,56.47
2022-11-04T19:20:18.950Z,58.37
2022-11-04T19:23:23.482Z,57.20
2022-11-04T19:26:31.625Z,57.19
2022-11-04T19:29:35.821Z,56.53
2022-11-04T19:32:40.081Z,56.94
2022-11-04T19:35:46.500Z,56.62
2022-11-04T19:38:54.304Z,57.09
2022-11-04T19:42:17.351Z,57.03
2022-11-04T19:45:21.731Z,57.04
2022-11-04T19:48:25.881Z,57.16
2022-11-04T19:51:32.115Z,56.86
2022-11-04T19:54:39.151Z,57.59
2022-11-04T19:57:47.781Z,56.89
2022-11-04T20:00:52.180Z,57.38
2022-11-04T20:03:57.002Z,57.95
2022-11-04T20:07:04.751Z,58.38
2022-11-04T20:10:10.011Z,58.91
2022-11-04T20:13:38.510Z,59.29
2022-11-04T20:16:45.681Z,58.90
2022-11-04T20:19:50.841Z,59.99
2022-11-04T20:22:55.191Z,59.12
2022-11-04T20:26:06.753Z,58.87
2022-11-04T20:29:13.341Z,58.40
2022-11-04T20:32:17.542Z,57.98
2022-11-04T20:35:22.373Z,57.91
2022-11-04T20:38:26.851Z,57.59
2022-11-04T20:41:31.931Z,57.72
2022-11-04T20:44:37.804Z,58.60
2022-11-04T20:47:42.110Z,58.78
2022-11-04T20:50:46.381Z,60.69
2022-11-04T20:53:56.282Z,58.93
2022-11-04T20:57:03.152Z,58.53
2022-11-04T21:00:10.511Z,58.38
2022-11-04T21:03:14.831Z,58.27
2022-11-04T21:06:20.352Z,58.46
2022-11-04T21:09:26.310Z,58.49
2022-11-04T21:12:30.681Z,58.64
2022-11-04T21:15:42.890Z,58.52
2022-11-04T21:18:47.239Z,58.35
2022-11-04T21:21:51.918Z,58.15
2022-11-04T21:24:56.155Z,58.52
2022-11-04T21:28:00.562Z,58.20
2022-11-04T21:31:12.554Z,59.15
2022-11-04T21:34:17.049Z,58.47
2022-11-04T21:37:21.526Z,58.55
2022-11-04T21:40:25.766Z,58.38
2022-11-04T21:43:30.995Z,59.05
2022-11-04T21:46:38.467Z,60.21
2022-11-04T21:49:42.745Z,59.62
2022-11-04T21:52:48.275Z,59.25
2022-11-04T21:55:53.316Z,59.29
2022-11-04T21:58:58.518Z,58.99
2022-11-04T22:02:04.520Z,59.52
2022-11-04T22:05:09.817Z,61.58
2022-11-04T22:08:21.348Z,61.40
2022-11-04T22:11:27.945Z,61.10
2022-11-04T22:14:32.426Z,60.33
2022-11-04T22:17:40.474Z,60.05
2022-11-04T22:20:44.846Z,60.02
2022-11-04T22:23:49.166Z,60.29
2022-11-04T22:26:53.345Z,59.50
2022-11-04T22:29:59.686Z,59.31
2022-11-04T22:33:05.305Z,59.35
2022-11-04T22:36:11.075Z,59.34
2022-11-04T22:39:17.030Z,59.07
2022-11-04T22:42:21.406Z,59.76
2022-11-04T22:45:25.626Z,60.34
2022-11-04T22:48:31.286Z,60.67
2022-11-04T22:51:35.605Z,60.69
2022-11-04T22:54:39.965Z,60.46
2022-11-04T22:57:44.296Z,60.48
2022-11-04T23:00:55.332Z,61.80
2022-11-04T23:04:01.289Z,60.81
2022-11-04T23:07:05.692Z,61.00
2022-11-04T23:10:27.532Z,61.67
2022-11-04T23:13:49.351Z,62.52
2022-11-04T23:17:13.970Z,62.30
2022-11-04T23:20:21.542Z,62.54
2022-11-04T23:23:42.803Z,63.35
2022-11-04T23:26:48.511Z,62.87
2022-11-04T23:30:09.691Z,62.69
2022-11-04T23:33:16.177Z,62.92
2022-11-04T23:36:38.531Z,63.25
2022-11-04T23:39:44.411Z,63.90
2022-11-04T23:42:48.559Z,64.00
2022-11-04T23:46:26.350Z,64.94
2022-11-04T23:49:48.000Z,63.98
2022-11-04T23:53:11.087Z,64.52
2022-11-04T23:56:32.972Z,63.61
2022-11-04T23:59:54.722Z,62.95
